Thunder radar more information blitzortung!


avis per Snow/Ice more information rain snow radar


Visita la nostra xarxa de llocs de meteo:

Template documentation
and downloads

And another site



Snow/Ice From: 26-02-2018 12:00 Until: 27-02-2018 05:59 warning for: Snow/Ice Level: Yellow info button

Pagina Historial Weather Underground text

Diari Resum Cap La, TWC- Unitats:  Mètric    Imperial   Tant
« Previous Dia
SegĂźent Dia »
Diari Setmana Mensual Anual Personalitzada
  Maxima: Minima: Media:
Temperatura: -17.8 °C -15.5 °C -14.6 °C
Punt de rosada: -17.8 °C -19.6 °C -18.8 °C
Humitat: Humidity % 49 % 57 %
Wind Speed: 0 km/h 0 km/h 3.7 km/h
RĂ fegues de vent: 0 km/h - -
Vent:- - ENE
Pression baro: 0 hPa 34097 hPa -
Precipitacions: 0 mm    
Historical Graphs
 
 
Dades de taula per Cap La, TWC-
Temps Temperatura Punt de rosada Pression baro Vent Wind Speed RĂ fegues de vent Humitat Rainfall Rate (Hourly)
-17.8 °C -17.8 °C 0 hPa Calm     Humidity % 0 mm
00:02 -14 °C -19.6 °C 34097 hPa ENE 6 km/h 6 km/h 49 % 0 mm
00:07 -14.1 °C -19.4 °C 34097 hPa NE 4.2 km/h 4.2 km/h 50 % 0 mm
00:12 -14.1 °C -19.5 °C 34097 hPa NNE 6 km/h 6 km/h 50 % 0 mm
00:17 -14.2 °C -19.6 °C 34097 hPa Calm     50 % 0 mm
00:22 -14.2 °C -19.4 °C 34097 hPa NNE 4.2 km/h   51 % 0 mm
00:27 -14.3 °C -19.5 °C 34097 hPa Calm     51 % 0 mm
00:32 -14.3 °C -19.5 °C 34097 hPa Calm     51 % 0 mm
00:37 -14.3 °C -19.3 °C 34097 hPa NE 6 km/h 6 km/h 52 % 0 mm
00:42 -14.3 °C -19.4 °C 34130.9 hPa NNE 6 km/h 6 km/h 52 % 0 mm
00:47 -14.3 °C -19.3 °C 34130.9 hPa NNE 6 km/h 6 km/h 53 % 0 mm
00:52 -14.3 °C -19.3 °C 34130.9 hPa Calm     53 % 0 mm
00:57 -14.4 °C -19.3 °C 34097 hPa Calm     53 % 0 mm
01:02 -14.3 °C -19.1 °C 34097 hPa NNE 6.8 km/h 6.8 km/h 54 % 0 mm
01:07 -14.3 °C -19.1 °C 34097 hPa NNE 9 km/h 9 km/h 54 % 0 mm
01:12 -14.3 °C -18.9 °C 34130.9 hPa NNE 6 km/h 6 km/h 55 % 0 mm
01:17 -14.3 °C -18.9 °C 34130.9 hPa NNE 6 km/h 6 km/h 55 % 0 mm
01:22 -14.2 °C -18.8 °C 34130.9 hPa NNE 9 km/h 9 km/h 56 % 0 mm
01:27 -14.2 °C -18.7 °C 34130.9 hPa NNE 9 km/h 9 km/h 56 % 0 mm
01:32 -14.1 °C -18.5 °C 34130.9 hPa NNE 6.8 km/h 6.8 km/h 57 % 0 mm
01:37 -14.1 °C -18.5 °C 34130.9 hPa NNE 6.3 km/h 6.3 km/h 57 % 0 mm
01:42 -14.1 °C -18.4 °C 34130.9 hPa ENE 9 km/h 9 km/h 57 % 0 mm
01:47 -14.1 °C -18.3 °C 34130.9 hPa NNE 6 km/h 6 km/h 58 % 0 mm
01:52 -14.1 °C -18.3 °C 34130.9 hPa NNE 3.7 km/h   58 % 0 mm
01:57 -14.1 °C -18.4 °C 34130.9 hPa NNE 3.1 km/h   58 % 0 mm
02:02 -14.1 °C -18.4 °C 34130.9 hPa North 4.2 km/h 4.2 km/h 58 % 0 mm
02:07 -14.1 °C -18.4 °C 34130.9 hPa NNE 9 km/h 9 km/h 58 % 0 mm
02:12 -14.1 °C -18.2 °C 34097 hPa NNE 9 km/h 9 km/h 59 % 0 mm
02:17 -14.2 °C -18.3 °C 34097 hPa NNE 11.9 km/h 11.9 km/h 59 % 0 mm
02:22 -14.2 °C -18.3 °C 34097 hPa NNW 3.1 km/h   59 % 0 mm
02:27 -14.2 °C -18.2 °C 34097 hPa NNE 5.1 km/h 5.1 km/h 60 % 0 mm
02:32 -14.2 °C -18.2 °C 34097 hPa NNE 6 km/h 6 km/h 60 % 0 mm
02:37 -14.3 °C -18.3 °C 34097 hPa Calm     60 % 0 mm
02:42 -14.3 °C -18.3 °C 34130.9 hPa Calm     60 % 0 mm
02:52 -14.4 °C -18.4 °C 34130.9 hPa South 3.1 km/h 3.1 km/h 60 % 0 mm
02:57 -14.5 °C -18.5 °C 34097 hPa South 3.1 km/h   60 % 0 mm
03:02 -14.6 °C -18.6 °C 34097 hPa Calm     60 % 0 mm
03:07 -14.6 °C -18.4 °C 34097 hPa Calm     61 % 0 mm
03:12 -14.6 °C -18.4 °C 34097 hPa ENE 3.1 km/h 3.1 km/h 61 % 0 mm
03:17 -14.7 °C -18.5 °C 34097 hPa Calm     61 % 0 mm
03:22 -14.7 °C -18.6 °C 34097 hPa Calm     61 % 0 mm
03:27 -14.8 °C -18.6 °C 34097 hPa Calm     61 % 0 mm
03:32 -14.8 °C -18.7 °C 34097 hPa Calm     61 % 0 mm
03:37 -14.9 °C -18.7 °C 34097 hPa Calm     61 % 0 mm
03:42 -14.9 °C -18.6 °C 34097 hPa Calm     62 % 0 mm
03:47 -14.9 °C -18.7 °C 34097 hPa Calm     62 % 0 mm
03:52 -15 °C -18.7 °C 34097 hPa Calm     62 % 0 mm
03:57 -15.1 °C -18.8 °C 34097 hPa Calm     62 % 0 mm
04:02 -15.1 °C -18.7 °C 34097 hPa ENE 3.7 km/h 3.7 km/h 63 % 0 mm
04:07 -15.3 °C -18.8 °C 34097 hPa ESE 3.1 km/h   63 % 0 mm
04:12 -15.3 °C -18.9 °C 34130.9 hPa South 4.2 km/h 4.2 km/h 63 % 0 mm
04:17 -15.4 °C -19.1 °C 34130.9 hPa SW 6 km/h 6 km/h 62 % 0 mm
04:22 -15.5 °C -19.1 °C 34130.9 hPa SW 4.2 km/h 4.2 km/h 63 % 0 mm
04:27 -15.5 °C -19.1 °C 34097 hPa Calm     63 % 0 mm
Meteo Sesrovires
Elogis d' Weather Underground - 2.75 mb

Guio original per  Jim McMurry - jmcmurry@mwt.net Adaptat per a la plantilla per  Wim van der Kuil - Leuven-Template.eu

Trobareu la nostra informacio del temps tambe a:

Weather Underground

AWEKAS